Observation data for Post on 01/10/2018      Previous  Date  Next       Current Mesonet Observations  Soil Data  Daily Summary Page  Observations in Plain Language
KPT1 100600Z 20009KT 13/M00 A2986 RMK A01 T01321003  RH  040%=      5-min Rain = 0
KPT1 100605Z 19009KT 13/M00 A2986 RMK A01 T01311003  RH  040%=      5-min Rain = 0
KPT1 100610Z 20010KT 13/M00 A2986 RMK A01 T01311003  RH  040%=      5-min Rain = 0
KPT1 100615Z 20009KT 13/M00 A2986 RMK A01 T01301003  RH  041%=      5-min Rain = 0
KPT1 100620Z 20009KT 13/M00 A2986 RMK A01 T01271002  RH  041%=      5-min Rain = 0
KPT1 100625Z 20008KT 13/M00 A2986 RMK A01 T01261003  RH  042%=      5-min Rain = 0
KPT1 100630Z 20007KT 12/M00 A2986 RMK A01 T01221003  RH  043%=      5-min Rain = 0
KPT1 100635Z 19006KT 12/M00 A2985 RMK A01 T01201003  RH  043%=      5-min Rain = 0
KPT1 100640Z 19007KT 12/M00 A2985 RMK A01 T01211002  RH  043%=      5-min Rain = 0
KPT1 100645Z 19007KT 12/M00 A2985 RMK A01 T01231001  RH  043%=      5-min Rain = 0
KPT1 100650Z 18008KT 12/M00 A2985 RMK A01 T01241001  RH  043%=      5-min Rain = 0
KPT1 100655Z 18008KT 12/00 A2984 RMK A01 T012400-0  RH  043%=      5-min Rain = 0
KPT1 100700Z 18008KT 13/00 A2984 RMK A01 T01250001  RH  043%=      5-min Rain = 0
KPT1 100705Z 18008KT 13/00 A2984 RMK A01 T01280002  RH  042%=      5-min Rain = 0
KPT1 100710Z 18006KT 12/00 A2984 RMK A01 T01240001  RH  043%=      5-min Rain = 0
KPT1 100715Z 18007KT 12/00 A2984 RMK A01 T01230002  RH  044%=      5-min Rain = 0
KPT1 100720Z 18007KT 12/00 A2983 RMK A01 T01220002  RH  044%=      5-min Rain = 0
KPT1 100725Z 18007KT 12/00 A2984 RMK A01 T01210003  RH  045%=      5-min Rain = 0
KPT1 100730Z 18006G11KT 12/00 A2983 RMK A01 T01210003  RH  045%=      5-min Rain = 0
KPT1 100735Z 18007KT 12/00 A2983 RMK A01 T01190003  RH  045%=      5-min Rain = 0
KPT1 100740Z 18006KT 12/00 A2983 RMK A01 T01170003  RH  046%=      5-min Rain = 0
KPT1 100745Z 18006KT 12/00 A2983 RMK A01 T01150003  RH  047%=      5-min Rain = 0
KPT1 100750Z 17007KT 12/00 A2983 RMK A01 T01150004  RH  047%=      5-min Rain = 0
KPT1 100755Z 18007G12KT 12/01 A2982 RMK A01 T01160005  RH  047%=      5-min Rain = 0
KPT1 100800Z 17008KT 12/01 A2982 RMK A01 T01160005  RH  047%=      5-min Rain = 0
KPT1 100805Z 18007KT 12/01 A2982 RMK A01 T01170006  RH  047%=      5-min Rain = 0
KPT1 100810Z 18006KT 12/01 A2983 RMK A01 T01160006  RH  047%=      5-min Rain = 0
KPT1 100815Z 16006KT 12/01 A2982 RMK A01 T01150006  RH  048%=      5-min Rain = 0
KPT1 100820Z 17007KT 11/01 A2982 RMK A01 T01130006  RH  048%=      5-min Rain = 0
KPT1 100825Z 16007KT 12/01 A2982 RMK A01 T01150007  RH  048%=      5-min Rain = 0
KPT1 100830Z 16006KT 11/01 A2982 RMK A01 T01140007  RH  048%=      5-min Rain = 0
KPT1 100835Z 17006KT 11/01 A2982 RMK A01 T01140008  RH  048%=      5-min Rain = 0
KPT1 100840Z 18006KT 11/01 A2982 RMK A01 T01140007  RH  048%=      5-min Rain = 0
KPT1 100845Z 19004KT 11/01 A2982 RMK A01 T01100007  RH  049%=      5-min Rain = 0
KPT1 100850Z 18005KT 11/01 A2982 RMK A01 T01110008  RH  049%=      5-min Rain = 0
KPT1 100855Z 17005KT 11/01 A2982 RMK A01 T01080007  RH  050%=      5-min Rain = 0
KPT1 100900Z 17005KT 11/01 A2982 RMK A01 T01120008  RH  049%=      5-min Rain = 0
KPT1 100905Z 18006KT 11/01 A2982 RMK A01 T01110008  RH  050%=      5-min Rain = 0
KPT1 100910Z 19005KT 11/01 A2982 RMK A01 T01110008  RH  050%=      5-min Rain = 0
KPT1 100915Z 21006KT 11/01 A2982 RMK A01 T01100008  RH  050%=      5-min Rain = 0
KPT1 100920Z 21007KT 11/01 A2981 RMK A01 T01080008  RH  051%=      5-min Rain = 0
KPT1 100925Z 22008KT 11/01 A2981 RMK A01 T01100008  RH  050%=      5-min Rain = 0
KPT1 100930Z 22008KT 11/01 A2981 RMK A01 T01110008  RH  050%=      5-min Rain = 0
KPT1 100935Z 22009KT 11/01 A2981 RMK A01 T01070008  RH  051%=      5-min Rain = 0
KPT1 100940Z 21009KT 11/01 A298 RMK A01 T01070008  RH  051%=      5-min Rain = 0
KPT1 100945Z 21010KT 11/01 A298 RMK A01 T01080008  RH  051%=      5-min Rain = 0
KPT1 100950Z 21010KT 11/01 A298 RMK A01 T01070008  RH  051%=      5-min Rain = 0
KPT1 100955Z 21011KT 11/01 A2979 RMK A01 T01070008  RH  051%=      5-min Rain = 0
KPT1 101000Z 21011KT 11/01 A2979 RMK A01 T01060008  RH  052%=      5-min Rain = 0
KPT1 101005Z 22012G17KT 11/01 A2979 RMK A01 T01070009  RH  051%=      5-min Rain = 0
KPT1 101010Z 21012G17KT 11/01 A2978 RMK A01 T01100009  RH  050%=      5-min Rain = 0
KPT1 101015Z 21011KT 11/01 A2978 RMK A01 T01080009  RH  051%=      5-min Rain = 0
KPT1 101020Z 21010KT 11/01 A2978 RMK A01 T01090009  RH  051%=      5-min Rain = 0
KPT1 101025Z 21011G16KT 11/01 A2979 RMK A01 T01090009  RH  051%=      5-min Rain = 0
KPT1 101030Z 20010G15KT 11/01 A2979 RMK A01 T01090009  RH  050%=      5-min Rain = 0
KPT1 101035Z 21011KT 11/01 A2979 RMK A01 T01080009  RH  051%=      5-min Rain = 0
KPT1 101040Z 21011KT 11/01 A2979 RMK A01 T01080009  RH  051%=      5-min Rain = 0
KPT1 101045Z 21009KT 11/01 A2979 RMK A01 T01070009  RH  051%=      5-min Rain = 0
KPT1 101050Z 21010G15KT 11/01 A2979 RMK A01 T01060009  RH  052%=      5-min Rain = 0
KPT1 101055Z 20010G15KT 11/01 A2978 RMK A01 T01060009  RH  052%=      5-min Rain = 0
KPT1 101100Z 20010KT 10/01 A2978 RMK A01 T01040009  RH  052%=      5-min Rain = 0
KPT1 101105Z 20011KT 11/01 A2977 RMK A01 T01050009  RH  052%=      5-min Rain = 0
KPT1 101110Z 20011KT 11/01 A2977 RMK A01 T01060009  RH  052%=      5-min Rain = 0
KPT1 101115Z 20011KT 11/01 A2977 RMK A01 T01060009  RH  052%=      5-min Rain = 0
KPT1 101120Z 20011KT 11/01 A2977 RMK A01 T01050009  RH  052%=      5-min Rain = 0
KPT1 101125Z 20012KT 11/01 A2976 RMK A01 T01050009  RH  052%=      5-min Rain = 0
KPT1 101130Z 20010KT 10/01 A2977 RMK A01 T01040009  RH  052%=      5-min Rain = 0
KPT1 101135Z 21011KT 10/01 A2977 RMK A01 T01030009  RH  052%=      5-min Rain = 0
KPT1 101140Z 20011G16KT 10/01 A2977 RMK A01 T01040009  RH  052%=      5-min Rain = 0
KPT1 101145Z 20012G17KT 11/01 A2977 RMK A01 T01050009  RH  052%=      5-min Rain = 0
KPT1 101150Z 20012KT 10/01 A2977 RMK A01 T01040009  RH  052%=      5-min Rain = 0
KPT1 101155Z 20013KT 10/01 A2977 RMK A01 T01030009  RH  053%=      5-min Rain = 0
KPT1 101200Z 21011G17KT 10/01 A2977 RMK A01 T01030009  RH  053%=      5-min Rain = 0
KPT1 101205Z 21010KT 10/01 A2977 RMK A01 T01010008  RH  053%=      5-min Rain = 0
KPT1 101210Z 21010KT 10/01 A2977 RMK A01 T00990008  RH  054%=      5-min Rain = 0
KPT1 101215Z 20009G14KT 10/01 A2976 RMK A01 T00980008  RH  054%=      5-min Rain = 0
KPT1 101220Z 21011KT 10/01 A2977 RMK A01 T01000009  RH  054%=      5-min Rain = 0
KPT1 101225Z 20010KT 10/01 A2976 RMK A01 T01000009  RH  054%=      5-min Rain = 0
KPT1 101230Z 20011KT 10/01 A2976 RMK A01 T01010009  RH  053%=      5-min Rain = 0
KPT1 101235Z 20010G15KT 10/01 A2976 RMK A01 T01020009  RH  053%=      5-min Rain = 0
KPT1 101240Z 20011G17KT 10/01 A2976 RMK A01 T01010009  RH  053%=      5-min Rain = 0
KPT1 101245Z 21012KT 10/01 A2976 RMK A01 T01000009  RH  054%=      5-min Rain = 0
KPT1 101250Z 20015G20KT 10/01 A2976 RMK A01 T01040010  RH  053%=      5-min Rain = 0
KPT1 101255Z 20015G20KT 11/01 A2976 RMK A01 T01060010  RH  052%=      5-min Rain = 0
KPT1 101300Z 20015KT 11/01 A2976 RMK A01 T01070010  RH  052%=      5-min Rain = 0
KPT1 101305Z 20013G18KT 11/01 A2976 RMK A01 T01060010  RH  052%=      5-min Rain = 0
KPT1 101310Z 21010KT 10/01 A2976 RMK A01 T01040010  RH  053%=      5-min Rain = 0
KPT1 101315Z 21010G16KT 11/01 A2977 RMK A01 T01050010  RH  052%=      5-min Rain = 0
KPT1 101320Z 20013G18KT 11/01 A2976 RMK A01 T01070011  RH  052%=      5-min Rain = 0
KPT1 101325Z 20013G18KT 11/01 A2976 RMK A01 T01110011  RH  051%=      5-min Rain = 0
KPT1 101330Z 20012KT 11/01 A2976 RMK A01 T01110011  RH  051%=      5-min Rain = 0
KPT1 101335Z 19013G18KT 11/01 A2975 RMK A01 T01110011  RH  051%=      5-min Rain = 0
KPT1 101340Z 19012G17KT 11/01 A2975 RMK A01 T01110011  RH  051%=      5-min Rain = 0
KPT1 101345Z 19013G18KT 11/01 A2975 RMK A01 T01120012  RH  051%=      5-min Rain = 0
KPT1 101350Z 19012G17KT 11/01 A2975 RMK A01 T01110011  RH  051%=      5-min Rain = 0
KPT1 101355Z 19013KT 11/01 A2976 RMK A01 T01100012  RH  051%=      5-min Rain = 0
KPT1 101400Z 18012G17KT 11/01 A2976 RMK A01 T01110012  RH  051%=      5-min Rain = 0
KPT1 101405Z 18012KT 11/01 A2975 RMK A01 T01110012  RH  051%=      5-min Rain = 0
KPT1 101410Z 18011KT 11/01 A2975 RMK A01 T01110012  RH  051%=      5-min Rain = 0
KPT1 101415Z 18011KT 11/01 A2974 RMK A01 T01110011  RH  051%=      5-min Rain = 0
KPT1 101420Z 19011KT 11/01 A2975 RMK A01 T01110011  RH  051%=      5-min Rain = 0
KPT1 101425Z 19011KT 11/01 A2975 RMK A01 T01110011  RH  051%=      5-min Rain = 0
KPT1 101430Z 19009G14KT 11/01 A2975 RMK A01 T01110011  RH  051%=      5-min Rain = 0
KPT1 101435Z 17009G15KT 11/01 A2974 RMK A01 T01120012  RH  051%=      5-min Rain = 0
KPT1 101440Z 17012KT 11/01 A2974 RMK A01 T01130012  RH  050%=      5-min Rain = 0
KPT1 101445Z 17014KT 12/01 A2974 RMK A01 T01150012  RH  050%=      5-min Rain = 0
KPT1 101450Z 18012KT 12/01 A2974 RMK A01 T01160011  RH  049%=      5-min Rain = 0
KPT1 101455Z 17010KT 12/01 A2975 RMK A01 T01170011  RH  049%=      5-min Rain = 0
KPT1 101500Z 16009KT 12/01 A2975 RMK A01 T01170011  RH  049%=      5-min Rain = 0
KPT1 101505Z 16007KT 12/01 A2975 RMK A01 T01220012  RH  048%=      5-min Rain = 0
KPT1 101510Z 16006KT 13/01 A2975 RMK A01 T01280013  RH  046%=      5-min Rain = 0
KPT1 101515Z 16007G12KT 13/01 A2975 RMK A01 T01330014  RH  045%=      5-min Rain = 0
KPT1 101520Z 17009KT 14/01 A2975 RMK A01 T01370014  RH  044%=      5-min Rain = 0
KPT1 101525Z 19007G12KT 14/01 A2975 RMK A01 T01390014  RH  043%=      5-min Rain = 0
KPT1 101530Z 19009G16KT 13/01 A2975 RMK A01 T01340013  RH  044%=      5-min Rain = 0
KPT1 101535Z 19008KT 13/01 A2975 RMK A01 T01310012  RH  045%=      5-min Rain = 0
KPT1 101540Z 19009G15KT 13/01 A2975 RMK A01 T01290012  RH  045%=      5-min Rain = 0
KPT1 101545Z 17007KT 13/01 A2975 RMK A01 T01290013  RH  046%=      5-min Rain = 0
KPT1 101550Z 18007G13KT 13/01 A2975 RMK A01 T01280012  RH  046%=      5-min Rain = 0
KPT1 101555Z 18007KT 13/01 A2975 RMK A01 T01280012  RH  046%=      5-min Rain = 0
KPT1 101600Z 17007KT 14/01 A2975 RMK A01 T01350013  RH  044%=      5-min Rain = 0
KPT1 101605Z 15008G13KT 14/01 A2975 RMK A01 T01360012  RH  043%=      5-min Rain = 0
KPT1 101610Z 17006KT 13/01 A2975 RMK A01 T01330012  RH  044%=      5-min Rain = 0
KPT1 101615Z 18005KT 13/01 A2975 RMK A01 T01330013  RH  044%=      5-min Rain = 0
KPT1 101620Z 18006KT 14/02 A2975 RMK A01 T01440015  RH  042%=      5-min Rain = 0
KPT1 101625Z 17007G12KT 16/02 A2974 RMK A01 T01560015  RH  039%=      5-min Rain = 0
KPT1 101630Z 17009KT 15/01 A2975 RMK A01 T01480012  RH  040%=      5-min Rain = 0
KPT1 101635Z 18010KT 15/01 A2975 RMK A01 T01470013  RH  041%=      5-min Rain = 0
KPT1 101640Z 19008KT 15/01 A2975 RMK A01 T01470012  RH  040%=      5-min Rain = 0
KPT1 101645Z 18010G15KT 15/01 A2974 RMK A01 T01500013  RH  040%=      5-min Rain = 0
KPT1 101650Z 18009G14KT 16/01 A2974 RMK A01 T01580013  RH  038%=      5-min Rain = 0
KPT1 101655Z 19010KT 16/01 A2974 RMK A01 T01610013  RH  037%=      5-min Rain = 0
KPT1 101700Z 19010KT 16/01 A2975 RMK A01 T01630013  RH  037%=      5-min Rain = 0
KPT1 101705Z 19008G14KT 17/01 A2975 RMK A01 T01670014  RH  036%=      5-min Rain = 0
KPT1 101710Z 19008KT 17/01 A2974 RMK A01 T01720014  RH  035%=      5-min Rain = 0
KPT1 101715Z 19010KT 18/01 A2974 RMK A01 T01750014  RH  034%=      5-min Rain = 0
KPT1 101720Z 20011G18KT 18/01 A2974 RMK A01 T01760014  RH  034%=      5-min Rain = 0
KPT1 101725Z 20012G17KT 18/01 A2973 RMK A01 T01790013  RH  033%=      5-min Rain = 0
KPT1 101730Z 20013KT 18/01 A2972 RMK A01 T01810013  RH  033%=      5-min Rain = 0
KPT1 101735Z 20012G18KT 19/01 A2972 RMK A01 T01850013  RH  032%=      5-min Rain = 0
KPT1 101740Z 20013KT 19/01 A2971 RMK A01 T01860012  RH  031%=      5-min Rain = 0
KPT1 101745Z 20013G19KT 19/01 A2971 RMK A01 T01890012  RH  031%=      5-min Rain = 0
KPT1 101750Z 19011G16KT 19/01 A2971 RMK A01 T01930013  RH  030%=      5-min Rain = 0
KPT1 101755Z 19012G17KT 20/01 A297 RMK A01 T01950013  RH  030%=      5-min Rain = 0
KPT1 101800Z 19013G18KT 19/01 A297 RMK A01 T01920013  RH  030%=      5-min Rain = 0
KPT1 101805Z 19014KT 19/01 A297 RMK A01 T01940013  RH  030%=      5-min Rain = 0
KPT1 101810Z 20012G18KT 20/01 A2969 RMK A01 T01970013  RH  030%=      5-min Rain = 0
KPT1 101815Z 20013KT 20/01 A2969 RMK A01 T01990013  RH  029%=      5-min Rain = 0
KPT1 101820Z 20013G18KT 20/01 A2968 RMK A01 T02020012  RH  029%=      5-min Rain = 0
KPT1 101825Z 20013G19KT 20/01 A2967 RMK A01 T02020012  RH  028%=      5-min Rain = 0
KPT1 101830Z 20010G15KT 21/01 A2967 RMK A01 T02090013  RH  027%=      5-min Rain = 0
KPT1 101835Z 20014G19KT 21/01 A2966 RMK A01 T02090011  RH  027%=      5-min Rain = 0
KPT1 101840Z 20013G18KT 21/01 A2966 RMK A01 T02130012  RH  027%=      5-min Rain = 0
KPT1 101845Z 20011G16KT 22/01 A2965 RMK A01 T02180011  RH  026%=      5-min Rain = 0
KPT1 101850Z 21011G16KT 22/01 A2965 RMK A01 T02210010  RH  025%=      5-min Rain = 0
KPT1 101855Z 21014G19KT 22/01 A2964 RMK A01 T02210009  RH  025%=      5-min Rain = 0
KPT1 101900Z 21014G21KT 22/01 A2963 RMK A01 T02210008  RH  025%=      5-min Rain = 0
KPT1 101905Z 21013G21KT 22/01 A2963 RMK A01 T02240008  RH  024%=      5-min Rain = 0
KPT1 101910Z 20014G19KT 23/01 A2962 RMK A01 T02260007  RH  024%=      5-min Rain = 0
KPT1 101915Z 21015G22KT 22/01 A2962 RMK A01 T02240007  RH  024%=      5-min Rain = 0
KPT1 101920Z 21015G21KT 23/01 A2961 RMK A01 T02260005  RH  023%=      5-min Rain = 0
KPT1 101925Z 21012G19KT 23/01 A2961 RMK A01 T02320006  RH  023%=      5-min Rain = 0
KPT1 101930Z 21014G20KT 23/01 A2961 RMK A01 T02300005  RH  023%=      5-min Rain = 0
KPT1 101935Z 21015G21KT 23/00 A296 RMK A01 T02320003  RH  022%=      5-min Rain = 0
KPT1 101940Z 22014KT 23/00 A296 RMK A01 T02320004  RH  022%=      5-min Rain = 0
KPT1 101945Z 20014G22KT 23/01 A2959 RMK A01 T02330005  RH  022%=      5-min Rain = 0
KPT1 101950Z 21013G18KT 24/01 A2959 RMK A01 T02360005  RH  022%=      5-min Rain = 0
KPT1 101955Z 21014G20KT 24/00 A2958 RMK A01 T02380003  RH  021%=      5-min Rain = 0
KPT1 102000Z 22013G19KT 24/00 A2958 RMK A01 T02380003  RH  021%=      5-min Rain = 0
KPT1 102005Z 23013G18KT 24/00 A2958 RMK A01 T02440002  RH  021%=      5-min Rain = 0
KPT1 102010Z 22011G18KT 24/00 A2958 RMK A01 T02440003  RH  021%=      5-min Rain = 0
KPT1 102015Z 22013G19KT 25/00 A2958 RMK A01 T02470001  RH  020%=      5-min Rain = 0
KPT1 102020Z 22013G18KT 24/00 A2958 RMK A01 T02420000  RH  021%=      5-min Rain = 0
KPT1 102025Z 20014KT 24/00 A2957 RMK A01 T02410003  RH  021%=      5-min Rain = 0
KPT1 102030Z 21010G17KT 24/00 A2957 RMK A01 T02440003  RH  021%=      5-min Rain = 0
KPT1 102035Z 23013G19KT 25/00 A2957 RMK A01 T02450001  RH  020%=      5-min Rain = 0
KPT1 102040Z 22012G19KT 25/00 A2957 RMK A01 T02460002  RH  020%=      5-min Rain = 0
KPT1 102045Z 21015G20KT 24/00 A2956 RMK A01 T02440002  RH  021%=      5-min Rain = 0
KPT1 102050Z 22012KT 25/00 A2956 RMK A01 T02450003  RH  021%=      5-min Rain = 0
KPT1 102055Z 22010KT 25/00 A2955 RMK A01 T02480003  RH  020%=      5-min Rain = 0
KPT1 102100Z 21012G18KT 25/00 A2955 RMK A01 T02490002  RH  020%=      5-min Rain = 0
KPT1 102105Z 20011G17KT 24/00 A2955 RMK A01 T024000-0  RH  021%=      5-min Rain = 0
KPT1 102110Z 20011KT 24/00 A2955 RMK A01 T023600-0  RH  021%=      5-min Rain = 0
KPT1 102115Z 19009KT 24/00 A2955 RMK A01 T02350001  RH  021%=      5-min Rain = 0
KPT1 102120Z 22009G21KT 24/M00 A2955 RMK A01 T02371002  RH  021%=      5-min Rain = 0
KPT1 102125Z 22017G25KT 24/M02 A2955 RMK A01 T02411018  RH  018%=      5-min Rain = 0
KPT1 102130Z 22014G21KT 24/M02 A2955 RMK A01 T02401018  RH  018%=      5-min Rain = 0
KPT1 102135Z 23014G20KT 24/M02 A2955 RMK A01 T02401018  RH  018%=      5-min Rain = 0
KPT1 102140Z 23018G24KT 24/M03 A2955 RMK A01 T02411030  RH  017%=      5-min Rain = 0
KPT1 102145Z 24026G37KT 24/M05 A2954 RMK A01 T02401046  RH  015%=      5-min Rain = 0
KPT1 102150Z 24027G36KT 24/M05 A2954 RMK A01 T02401050  RH  014%=      5-min Rain = 0
KPT1 102155Z 24024G33KT 24/M05 A2954 RMK A01 T02391054  RH  014%=      5-min Rain = 0
KPT1 102200Z 24021G31KT 24/M06 A2954 RMK A01 T02431057  RH  013%=      5-min Rain = 0
KPT1 102205Z 24024G36KT 25/M06 A2954 RMK A01 T02451058  RH  013%=      5-min Rain = 0
KPT1 102210Z 24030G39KT 24/M06 A2954 RMK A01 T02371056  RH  014%=      5-min Rain = 0
KPT1 102215Z 24026G34KT 23/M06 A2954 RMK A01 T02331056  RH  014%=      5-min Rain = 0
KPT1 102220Z 23021G31KT 23/M06 A2954 RMK A01 T02331055  RH  014%=      5-min Rain = 0
KPT1 102225Z 24021G33KT 24/M06 A2954 RMK A01 T02381056  RH  014%=      5-min Rain = 0
KPT1 102230Z 23023G37KT 24/M05 A2953 RMK A01 T02391053  RH  014%=      5-min Rain = 0
KPT1 102235Z 23021G30KT 24/M05 A2953 RMK A01 T02361051  RH  015%=      5-min Rain = 0
KPT1 102240Z 24023G35KT 23/M05 A2953 RMK A01 T02341050  RH  015%=      5-min Rain = 0
KPT1 102245Z 24023G32KT 23/M05 A2953 RMK A01 T02321050  RH  015%=      5-min Rain = 0
KPT1 102250Z 24027G36KT 23/M05 A2953 RMK A01 T02311052  RH  015%=      5-min Rain = 0
KPT1 102255Z 24025G34KT 23/M05 A2953 RMK A01 T02301053  RH  015%=      5-min Rain = 0
KPT1 102300Z 27024G32KT 22/M02 A2955 RMK A01 T02181017  RH  021%=      5-min Rain = 0
KPT1 102305Z 27018G24KT 20/00 A2956 RMK A01 T02040003  RH  026%=      5-min Rain = 0
KPT1 102310Z 27023G34KT 20/01 A2955 RMK A01 T01990007  RH  028%=      5-min Rain = 0
KPT1 102315Z 27024G36KT 19/01 A2955 RMK A01 T01940009  RH  029%=      5-min Rain = 0
KPT1 102320Z 27024G33KT 19/01 A2956 RMK A01 T01910009  RH  030%=      5-min Rain = 0
KPT1 102325Z 27022G30KT 19/01 A2956 RMK A01 T01880009  RH  030%=      5-min Rain = 0
KPT1 102330Z 27020G30KT 18/01 A2956 RMK A01 T01840008  RH  031%=      5-min Rain = 0
KPT1 102335Z 27018G29KT 18/01 A2956 RMK A01 T01810008  RH  032%=      5-min Rain = 0
KPT1 102340Z 26024G35KT 18/01 A2957 RMK A01 T01780010  RH  033%=      5-min Rain = 0
KPT1 102345Z 27023G32KT 17/01 A2958 RMK A01 T01740011  RH  034%=      5-min Rain = 0
KPT1 102350Z 26021G27KT 17/01 A2958 RMK A01 T01720012  RH  035%=      5-min Rain = 0
KPT1 102355Z 27019G25KT 17/01 A2958 RMK A01 T01690012  RH  035%=      5-min Rain = 0
KPT1 110000Z 26020G28KT 17/01 A2958 RMK A01 T01680013  RH  036%=      5-min Rain = 0
KPT1 110005Z 25023G33KT 17/02 A296 RMK A01 T01660015  RH  036%=      5-min Rain = 0
KPT1 110010Z 25023G34KT 17/02 A2962 RMK A01 T01650016  RH  037%=      5-min Rain = 0
KPT1 110015Z 25024G34KT 16/01 A2964 RMK A01 T01630014  RH  037%=      5-min Rain = 0
KPT1 110020Z 24022G30KT 16/01 A2965 RMK A01 T01620014  RH  037%=      5-min Rain = 0
KPT1 110025Z 24031G44KT 16/02 A2965 RMK A01 T01560022  RH  041%=      5-min Rain = 0
KPT1 110030Z 24026G36KT 14/03 A2966 RMK A01 T01400033  RH  049%=      5-min Rain = 0
KPT1 110035Z 24023G31KT 14/03 A2967 RMK A01 T01390030  RH  048%=      5-min Rain = 0
KPT1 110040Z 23022G31KT 14/02 A2967 RMK A01 T01410023  RH  045%=      5-min Rain = 0
KPT1 110045Z 22017G23KT 13/04 A2969 RMK A01 T01280040  RH  056%=      5-min Rain = 0
KPT1 110050Z 22023G40KT 12/04 A2966 RMK A01 T01220042  RH  059%=      5-min Rain = 0
KPT1 110055Z 21010G17KT 12/04 A2958 RMK A01 T01220035  RH  056%=      5-min Rain = 0
KPT1 110100Z 22010KT 12/04 A2959 RMK A01 T01240036  RH  056%=      5-min Rain = 0
KPT1 110105Z 20011G17KT 12/04 A296 RMK A01 T01240036  RH  056%=      5-min Rain = 0
KPT1 110110Z 21011KT 12/04 A2961 RMK A01 T01240036  RH  055%=      5-min Rain = 0
KPT1 110115Z 22012G17KT 13/03 A2961 RMK A01 T01250034  RH  054%=      5-min Rain = 0
KPT1 110120Z 22009KT 12/04 A296 RMK A01 T01220035  RH  056%=      5-min Rain = 0
KPT1 110125Z 23012G17KT 12/03 A2961 RMK A01 T01230030  RH  054%=      5-min Rain = 0
KPT1 110130Z 22012G18KT 12/03 A2962 RMK A01 T01230028  RH  053%=      5-min Rain = 0
KPT1 110135Z 23013G21KT 12/03 A2962 RMK A01 T01240026  RH  052%=      5-min Rain = 0
KPT1 110140Z 23012G19KT 12/02 A2962 RMK A01 T01220024  RH  052%=      5-min Rain = 0
KPT1 110145Z 23013G19KT 12/02 A2961 RMK A01 T01200023  RH  052%=      5-min Rain = 0
KPT1 110150Z 23016G21KT 12/02 A2961 RMK A01 T01220020  RH  050%=      5-min Rain = 0
KPT1 110155Z 24016G21KT 12/02 A2961 RMK A01 T01210018  RH  050%=      5-min Rain = 0
KPT1 110200Z 23015G22KT 12/02 A2961 RMK A01 T01190017  RH  050%=      5-min Rain = 0
KPT1 110205Z 24016G23KT 12/02 A2961 RMK A01 T01190016  RH  050%=      5-min Rain = 0
KPT1 110210Z 24016KT 12/02 A2961 RMK A01 T01170016  RH  050%=      5-min Rain = 0
KPT1 110215Z 24017G23KT 12/02 A2961 RMK A01 T01170016  RH  050%=      5-min Rain = 0
KPT1 110220Z 23017G26KT 12/02 A2961 RMK A01 T01170016  RH  050%=      5-min Rain = 0
KPT1 110225Z 24017G23KT 12/02 A2961 RMK A01 T01170016  RH  051%=      5-min Rain = 0
KPT1 110230Z 24017G24KT 12/02 A296 RMK A01 T01150016  RH  051%=      5-min Rain = 0
KPT1 110235Z 23018G26KT 12/02 A296 RMK A01 T01150016  RH  051%=      5-min Rain = 0
KPT1 110240Z 23018G24KT 12/02 A2961 RMK A01 T01150016  RH  051%=      5-min Rain = 0
KPT1 110245Z 24019G27KT 12/02 A296 RMK A01 T01160016  RH  051%=      5-min Rain = 0
KPT1 110250Z 24021G29KT 12/02 A296 RMK A01 T01160016  RH  051%=      5-min Rain = 0
KPT1 110255Z 24021G29KT 12/02 A296 RMK A01 T01170017  RH  051%=      5-min Rain = 0
KPT1 110300Z 24020G26KT 12/02 A296 RMK A01 T01160017  RH  051%=      5-min Rain = 0
KPT1 110305Z 23020KT 12/02 A2961 RMK A01 T01150018  RH  052%=      5-min Rain = 0
KPT1 110310Z 23019G28KT 12/02 A2961 RMK A01 T01150018  RH  052%=      5-min Rain = 0
KPT1 110315Z 24018G24KT 12/02 A2961 RMK A01 T01150018  RH  052%=      5-min Rain = 0
KPT1 110320Z 24019KT 12/02 A296 RMK A01 T01150018  RH  052%=      5-min Rain = 0
KPT1 110325Z 24019G25KT 11/02 A296 RMK A01 T01140018  RH  052%=      5-min Rain = 0
KPT1 110330Z 23021G30KT 12/02 A2961 RMK A01 T01150018  RH  052%=      5-min Rain = 0
KPT1 110335Z 23018G23KT 11/02 A2961 RMK A01 T01130017  RH  052%=      5-min Rain = 0
KPT1 110340Z 23017G25KT 11/02 A2961 RMK A01 T01130018  RH  052%=      5-min Rain = 0
KPT1 110345Z 23016G25KT 11/02 A2961 RMK A01 T01130018  RH  053%=      5-min Rain = 0
KPT1 110350Z 23018G29KT 11/02 A2961 RMK A01 T01140018  RH  052%=      5-min Rain = 0
KPT1 110355Z 23020G27KT 12/02 A2961 RMK A01 T01150018  RH  052%=      5-min Rain = 0
KPT1 110400Z 24019G27KT 12/02 A2961 RMK A01 T01150018  RH  052%=      5-min Rain = 0
KPT1 110405Z 23018G26KT 11/02 A2961 RMK A01 T01140018  RH  052%=      5-min Rain = 0
KPT1 110410Z 23019G25KT 11/02 A2961 RMK A01 T01130018  RH  052%=      5-min Rain = 0
KPT1 110415Z 23018G26KT 11/02 A2961 RMK A01 T01130018  RH  053%=      5-min Rain = 0
KPT1 110420Z 23018G24KT 11/02 A2961 RMK A01 T01130018  RH  052%=      5-min Rain = 0
KPT1 110425Z 23016G22KT 11/02 A2961 RMK A01 T01130018  RH  053%=      5-min Rain = 0
KPT1 110430Z 23016G21KT 11/02 A2962 RMK A01 T01110017  RH  053%=      5-min Rain = 0
KPT1 110435Z 23015G23KT 11/02 A2962 RMK A01 T01110017  RH  053%=      5-min Rain = 0
KPT1 110440Z 22016G22KT 11/02 A2962 RMK A01 T01120017  RH  053%=      5-min Rain = 0
KPT1 110445Z 23017G24KT 11/02 A2962 RMK A01 T01110017  RH  053%=      5-min Rain = 0
KPT1 110450Z 23016G23KT 11/02 A2962 RMK A01 T01130016  RH  052%=      5-min Rain = 0
KPT1 110455Z 22016G25KT 11/02 A2962 RMK A01 T01130016  RH  052%=      5-min Rain = 0
KPT1 110500Z 22015G21KT 11/02 A2962 RMK A01 T01130015  RH  052%=      5-min Rain = 0
KPT1 110505Z 22016G23KT 11/02 A2962 RMK A01 T01130015  RH  051%=      5-min Rain = 0
KPT1 110510Z 22015G21KT 11/02 A2962 RMK A01 T01130015  RH  052%=      5-min Rain = 0
KPT1 110515Z 22015KT 11/02 A2962 RMK A01 T01110015  RH  052%=      5-min Rain = 0
KPT1 110520Z 22013G20KT 11/01 A2962 RMK A01 T01100014  RH  052%=      5-min Rain = 0
KPT1 110525Z 23016G22KT 11/01 A2962 RMK A01 T01100014  RH  052%=      5-min Rain = 0
KPT1 110530Z 22017G23KT 11/01 A2962 RMK A01 T01120013  RH  051%=      5-min Rain = 0
KPT1 110535Z 23017G22KT 11/01 A2962 RMK A01 T01130011  RH  050%=      5-min Rain = 0
KPT1 110540Z 22017G23KT 11/01 A2962 RMK A01 T01130010  RH  050%=      5-min Rain = 0
KPT1 110545Z 22015G21KT 11/01 A2962 RMK A01 T01130009  RH  049%=      5-min Rain = 0
KPT1 110550Z 22016G23KT 11/01 A2962 RMK A01 T01120009  RH  049%=      5-min Rain = 0
KPT1 110555Z 22016G22KT 11/01 A2962 RMK A01 T01120008  RH  049%=      5-min Rain = 0

Page generated in 0.0278 seconds.